Time;durP1;ratioP1;P1;durP2;ratioP2;P2;SDS_P1;SDS_P2;PMS_P1;PMS_P2;Temp;Humidity;BMP_temperature;BMP_pressure;BME280_temperature;BME280_humidity;BME280_pressure;Samples;Min_cycle;Max_cycle;Signal;HPM_P1;HPM_P2
2021/11/02 00:01:31;;;;;;;;;2.67;2.67;;;;;-147.17;100.00;49731.84;5047065;28;51494;-69
2021/11/02 00:03:56;;;;;;;;;2.33;1.33;;;;;-147.17;100.00;49753.50;5060166;28;51328;-69
2021/11/02 00:06:22;;;;;;;;;3.67;3.00;;;;;-147.17;100.00;49727.91;5064485;27;51589;-70
2021/11/02 00:08:48;;;;;;;;;3.00;2.67;;;;;-147.17;100.00;49777.13;5054290;28;51093;-70
2021/11/02 00:11:13;;;;;;;;;1.67;1.00;;;;;-147.17;100.00;49745.63;5046763;28;51174;-70
2021/11/02 00:13:42;;;;;;;;;3.00;3.00;;;;;-147.17;100.00;49743.66;5072447;28;51628;-68
2021/11/02 00:16:09;;;;;;;;;4.00;3.33;;;;;-147.17;100.00;49718.06;5050845;28;52492;-70
2021/11/02 00:18:37;;;;;;;;;2.00;2.00;;;;;-147.17;100.00;49784.97;5053205;28;51081;-69
2021/11/02 00:21:03;;;;;;;;;2.00;2.00;;;;;-147.17;100.00;49729.88;5069202;28;51175;-71
2021/11/02 00:23:36;;;;;;;;;1.00;1.00;;;;;-147.17;100.00;49747.59;5071976;28;51019;-71
2021/11/02 00:26:06;;;;;;;;;2.00;2.00;;;;;-147.17;100.00;49710.19;5069119;28;52793;-70
2021/11/02 00:28:32;;;;;;;;;1.00;1.00;;;;;-147.17;100.00;49725.94;5072080;28;51190;-71
2021/11/02 00:30:57;;;;;;;;;2.00;2.00;;;;;-147.17;100.00;49737.75;5051055;28;51298;-72
2021/11/02 00:33:24;;;;;;;;;2.00;2.00;;;;;-147.17;100.00;49743.66;5056573;28;51275;-69
2021/11/02 00:35:50;;;;;;;;;2.00;2.00;;;;;-147.17;100.00;49763.34;5071422;27;51682;-70
2021/11/02 00:38:15;;;;;;;;;2.00;1.00;;;;;-147.17;100.00;49747.59;5072075;28;51010;-69
2021/11/02 00:40:43;;;;;;;;;1.00;1.00;;;;;-147.17;100.00;49714.13;5066081;27;50850;-69
2021/11/02 00:43:10;;;;;;;;;1.00;1.00;;;;;-147.17;100.00;49710.19;5047810;28;51146;-69
2021/11/02 00:45:36;;;;;;;;;1.33;1.00;;;;;-147.17;100.00;49702.31;5051606;28;52721;-68
2021/11/02 00:48:07;;;;;;;;;1.33;1.33;;;;;-147.17;100.00;49741.69;5070100;28;51143;-71
2021/11/02 00:50:36;;;;;;;;;2.00;1.00;;;;;-147.17;100.00;49788.91;5059918;28;51301;-70
2021/11/02 00:53:03;;;;;;;;;1.33;1.33;;;;;-147.17;100.00;49722.00;5063829;28;51312;-72
2021/11/02 00:55:29;;;;;;;;;1.00;1.00;;;;;-147.17;100.00;49743.66;5069978;28;51169;-70
2021/11/02 00:57:55;;;;;;;;;2.00;2.00;;;;;-147.17;100.00;49718.06;5070011;28;51156;-70
2021/11/02 01:00:23;;;;;;;;;1.00;1.00;;;;;-147.17;100.00;49743.66;5033243;28;51182;-70
2021/11/02 01:02:48;;;;;;;;;1.33;1.00;;;;;-147.17;100.00;49753.50;5051610;28;51211;-68
2021/11/02 01:05:14;;;;;;;;;0.67;0.67;;;;;-147.17;100.00;49718.06;5071023;28;51865;-71
2021/11/02 01:07:39;;;;;;;;;1.00;0.00;;;;;-147.17;100.00;49737.75;5071040;28;51176;-70
2021/11/02 01:10:12;;;;;;;;;0.00;0.00;;;;;-147.17;100.00;49692.47;5070832;28;50951;-68
2021/11/02 01:12:38;;;;;;;;;0.33;0.33;;;;;-147.17;100.00;49733.81;5055117;27;51300;-70
2021/11/02 01:15:05;;;;;;;;;5.67;5.33;;;;;-147.17;100.00;49739.72;5062161;28;52020;-69
2021/11/02 01:17:30;;;;;;;;;1.00;1.00;;;;;-147.17;100.00;49741.69;5068262;27;51204;-68
2021/11/02 01:19:56;;;;;;;;;1.00;1.00;;;;;-147.17;100.00;49722.00;5066672;28;51242;-69
2021/11/02 01:22:21;;;;;;;;;1.00;1.00;;;;;-147.17;100.00;49706.25;5066650;28;51614;-69
2021/11/02 01:24:48;;;;;;;;;1.00;1.00;;;;;-147.17;100.00;49729.88;5070872;27;51837;-70
2021/11/02 01:27:14;;;;;;;;;1.00;1.00;;;;;-147.17;100.00;49714.13;5065380;28;51269;-69
2021/11/02 01:29:39;;;;;;;;;0.33;0.33;;;;;-147.17;100.00;49716.09;5051309;28;51499;-69
2021/11/02 01:32:05;;;;;;;;;1.00;1.00;;;;;-147.17;100.00;49745.63;5065296;27;51176;-70
2021/11/02 01:34:31;;;;;;;;;2.00;1.00;;;;;-147.17;100.00;49710.19;5068046;28;53701;-70
2021/11/02 01:36:56;;;;;;;;;1.00;1.00;;;;;-147.17;100.00;49706.25;5066762;27;50860;-69
2021/11/02 01:39:23;;;;;;;;;2.00;1.00;;;;;-147.17;100.00;49714.13;5071292;28;51182;-69
2021/11/02 01:41:49;;;;;;;;;1.00;1.00;;;;;-147.17;100.00;49761.38;5059578;28;51329;-68
2021/11/02 01:44:15;;;;;;;;;2.00;1.33;;;;;-147.17;100.00;49694.44;5074708;27;51154;-68
2021/11/02 01:46:43;;;;;;;;;3.00;2.00;;;;;-147.17;100.00;49729.88;5055544;27;51321;-69
2021/11/02 01:49:09;;;;;;;;;1.00;1.00;;;;;-147.17;100.00;49716.09;5050910;28;51050;-69
2021/11/02 01:51:35;;;;;;;;;2.00;1.00;;;;;-147.17;100.00;49731.84;5063871;27;51204;-70
2021/11/02 01:54:02;;;;;;;;;1.00;1.00;;;;;-147.17;100.00;49753.50;5067839;27;52066;-69
2021/11/02 01:56:28;;;;;;;;;2.67;1.00;;;;;-147.17;100.00;49714.13;5069028;27;51100;-68
2021/11/02 01:58:54;;;;;;;;;1.00;1.00;;;;;-147.17;100.00;49710.19;5053831;28;51159;-68
2021/11/02 02:02:18;;;;;;;;;2.00;1.67;;;;;-147.17;100.00;49718.06;5079115;27;51107;-69
2021/11/02 02:05:00;;;;;;;;;0.00;0.00;;;;;-147.17;100.00;49710.19;4980881;28;50966;-69
2021/11/02 02:07:29;;;;;;;;;2.00;2.00;;;;;-147.17;100.00;49712.16;4974940;28;51188;-68
2021/11/02 02:10:09;;;;;;;;;2.67;2.67;;;;;-147.17;100.00;49722.00;5033761;27;51097;-69
2021/11/02 02:12:52;;;;;;;;;1.67;1.67;;;;;-147.17;100.00;49692.47;5074761;27;51591;-68
2021/11/02 02:15:40;;;;;;;;;2.00;1.00;;;;;-147.17;100.00;49735.78;5059025;28;52681;-69
2021/11/02 02:18:11;;;;;;;;;1.00;1.00;;;;;-147.17;100.00;49722.00;5046786;28;51194;-70
2021/11/02 02:21:09;;;;;;;;;2.00;2.00;;;;;-147.17;100.00;49722.00;5065617;27;51269;-69
2021/11/02 02:23:51;;;;;;;;;1.00;1.00;;;;;-147.17;100.00;49741.69;5074472;27;51218;-67
2021/11/02 02:26:31;;;;;;;;;0.33;0.33;;;;;-147.17;100.00;49769.25;5039098;28;51049;-70
2021/11/02 02:29:02;;;;;;;;;1.33;1.00;;;;;-147.17;100.00;49725.94;5074116;28;51216;-69
2021/11/02 02:31:31;;;;;;;;;1.00;1.00;;;;;-147.17;100.00;49733.81;5080761;27;51398;-69
2021/11/02 02:33:58;;;;;;;;;2.00;2.00;;;;;-147.17;100.00;49733.81;5077037;28;51252;-68
2021/11/02 02:36:24;;;;;;;;;0.00;0.00;;;;;-147.17;100.00;49747.59;5043103;27;52784;-68
2021/11/02 02:38:52;;;;;;;;;1.33;1.00;;;;;-147.17;100.00;49731.84;5058425;27;52568;-70
2021/11/02 02:41:22;;;;;;;;;1.33;1.00;;;;;-147.17;100.00;49739.72;5064715;28;51203;-68
2021/11/02 02:43:49;;;;;;;;;2.00;1.67;;;;;-147.17;100.00;49757.44;5043567;28;51356;-70
2021/11/02 02:46:15;;;;;;;;;1.00;1.00;;;;;-147.17;100.00;49729.88;5065132;27;51076;-69
2021/11/02 02:48:42;;;;;;;;;2.00;2.00;;;;;-147.17;100.00;49729.88;5053386;28;51082;-69
2021/11/02 02:51:10;;;;;;;;;1.67;1.67;;;;;-147.17;100.00;49749.56;5076209;28;51173;-68
2021/11/02 02:53:35;;;;;;;;;0.67;0.00;;;;;-147.17;100.00;49725.94;5057690;28;51403;-68
2021/11/02 02:56:06;;;;;;;;;2.00;0.33;;;;;-147.17;100.00;49733.81;5075859;28;51900;-69
2021/11/02 02:58:38;;;;;;;;;2.00;1.33;;;;;-147.17;100.00;49725.94;5074118;27;51376;-67
2021/11/02 03:01:05;;;;;;;;;2.00;1.00;;;;;-147.17;100.00;49735.78;5057032;28;51208;-69
2021/11/02 03:03:32;;;;;;;;;0.00;0.00;;;;;-147.17;100.00;49710.19;5041619;28;51166;-71
2021/11/02 03:06:02;;;;;;;;;1.00;1.00;;;;;-147.17;100.00;49737.75;5076396;28;51031;-70
2021/11/02 03:08:28;;;;;;;;;1.00;1.00;;;;;-147.17;100.00;49755.47;5069706;28;51150;-70
2021/11/02 03:10:56;;;;;;;;;1.00;1.00;;;;;-147.17;100.00;49751.53;5079106;27;50881;-71
2021/11/02 03:13:24;;;;;;;;;1.00;1.00;;;;;-147.17;100.00;49743.66;5077908;28;51173;-70
2021/11/02 03:16:01;;;;;;;;;3.33;3.00;;;;;-147.17;100.00;49733.81;5073375;28;51705;-70
2021/11/02 03:48:57;;;;;;;;;1.00;1.00;;;;;-147.17;100.00;49757.44;5055979;28;50967;-70
2021/11/02 05:09:04;;;;;;;;;1.00;1.00;;;;;-147.17;100.00;49733.81;5057817;28;51140;-70
2021/11/02 06:00:26;;;;;;;;;1.00;1.00;;;;;-147.17;100.00;49747.59;5074988;27;51100;-71
2021/11/02 06:05:58;;;;;;;;;1.00;1.00;;;;;-147.17;100.00;49757.44;4973103;28;51188;-71
2021/11/02 06:30:31;;;;;;;;;1.00;1.00;;;;;-147.17;100.00;49788.91;5076118;28;51081;-72
2021/11/02 06:36:16;;;;;;;;;2.67;2.00;;;;;-147.17;100.00;49790.88;5074186;28;51006;-72
2021/11/02 06:39:13;;;;;;;;;1.00;1.00;;;;;-147.17;100.00;49794.81;5075205;28;51156;-72
2021/11/02 07:20:10;;;;;;;;;2.00;1.00;;;;;-147.17;100.00;49800.72;5080389;28;51203;-71
2021/11/02 08:48:12;;;;;;;;;2.67;2.00;;;;;-147.17;100.00;49635.41;5065919;28;51044;-67
2021/11/02 08:50:42;;;;;;;;;2.00;1.67;;;;;-147.17;100.00;49714.13;5068154;27;51325;-68
2021/11/02 08:53:11;;;;;;;;;2.00;2.00;;;;;-147.17;100.00;49767.28;5062727;27;52692;-67
2021/11/02 08:55:37;;;;;;;;;1.67;1.67;;;;;-147.17;100.00;49733.81;5067505;28;51119;-68
2021/11/02 08:58:04;;;;;;;;;2.00;2.00;;;;;-147.17;100.00;49718.06;5071084;28;51069;-68
2021/11/02 09:00:31;;;;;;;;;4.00;4.00;;;;;-147.17;100.00;49684.59;5066356;27;51276;-69
2021/11/02 09:03:08;;;;;;;;;4.00;4.00;;;;;-147.17;100.00;49631.47;5064914;27;51192;-68
2021/11/02 09:05:36;;;;;;;;;3.00;2.00;;;;;-147.17;100.00;49647.22;5043956;28;51621;-68
2021/11/02 09:08:02;;;;;;;;;2.67;2.67;;;;;-147.17;100.00;49607.84;5066889;28;51097;-75
2021/11/02 09:10:29;;;;;;;;;5.00;5.00;;;;;-147.17;100.00;49605.88;5068873;27;51268;-74
2021/11/02 09:12:57;;;;;;;;;3.00;3.00;;;;;-147.17;100.00;49540.94;5052168;28;51091;-72
2021/11/02 09:15:25;;;;;;;;;4.00;4.00;;;;;-147.17;100.00;49556.66;5063440;28;51521;-74
2021/11/02 09:17:54;;;;;;;;;3.67;3.00;;;;;-147.17;100.00;49621.63;5055070;28;51213;-74
2021/11/02 09:20:19;;;;;;;;;4.50;4.50;;;;;-147.17;100.00;49574.38;5080220;27;51465;-74
2021/11/02 09:22:45;;;;;;;;;1.00;1.00;;;;;-147.17;100.00;49578.31;5059942;28;51188;-75
2021/11/02 09:25:12;;;;;;;;;3.00;2.00;;;;;-147.17;100.00;49580.28;5061708;28;51135;-75
2021/11/02 09:27:38;;;;;;;;;2.00;2.00;;;;;-147.17;100.00;49615.72;5047412;28;51079;-72
2021/11/02 09:30:06;;;;;;;;;2.00;1.33;;;;;-147.17;100.00;49584.22;5049650;28;51371;-71
2021/11/02 09:32:34;;;;;;;;;2.00;2.00;;;;;-147.17;100.00;49698.38;5037710;28;53583;-70
2021/11/02 09:35:00;;;;;;;;;3.00;3.00;;;;;-147.17;100.00;49627.53;5053812;28;51268;-70
2021/11/02 09:37:35;;;;;;;;;2.00;1.67;;;;;-147.17;100.00;49666.88;5053690;28;51586;-72
2021/11/02 09:40:26;;;;;;;;;1.33;1.00;;;;;-147.17;100.00;49698.38;5072830;27;50994;-71
2021/11/02 09:43:01;;;;;;;;;1.00;1.00;;;;;-147.17;100.00;49643.28;5041425;28;53381;-71
2021/11/02 09:46:15;;;;;;;;;3.00;2.33;;;;;-147.17;100.00;49694.44;5053494;28;51080;-70
2021/11/02 09:48:59;;;;;;;;;3.00;2.67;;;;;-147.17;100.00;49674.75;4981142;27;51274;-70
2021/11/02 09:51:45;;;;;;;;;1.67;1.00;;;;;-147.17;100.00;49651.16;5075263;28;51302;-71
2021/11/02 09:54:18;;;;;;;;;1.33;1.33;;;;;-147.17;100.00;49674.75;5049323;28;52719;-72
2021/11/02 09:57:14;;;;;;;;;57.50;47.75;;;;;-147.17;100.00;49641.31;5074578;28;51235;-72
2021/11/02 10:00:02;;;;;;;;;5.00;5.00;;;;;-147.17;100.00;49631.47;5050473;27;51178;-71
2021/11/02 10:02:51;;;;;;;;;3.00;3.00;;;;;-147.17;100.00;49643.28;5058533;28;51224;-72
2021/11/02 10:05:52;;;;;;;;;0.67;0.67;;;;;-147.17;100.00;49676.72;5050395;28;52771;-70
2021/11/02 10:09:06;;;;;;;;;2.67;2.00;;;;;-147.17;100.00;49615.72;5054268;28;51159;-70
2021/11/02 10:11:45;;;;;;;;;2.00;2.00;;;;;-147.17;100.00;49611.78;4989206;28;51157;-70
2021/11/02 10:14:21;;;;;;;;;1.00;1.00;;;;;-147.17;100.00;49576.34;5046857;28;51298;-70
2021/11/02 10:17:11;;;;;;;;;1.00;1.00;;;;;-147.17;100.00;49607.84;5059978;28;51099;-71
2021/11/02 10:20:02;;;;;;;;;3.00;2.00;;;;;-147.17;100.00;49601.94;5070443;28;51164;-72
2021/11/02 10:22:34;;;;;;;;;1.00;1.00;;;;;-147.17;100.00;49605.88;5052668;28;51099;-71
2021/11/02 10:25:10;;;;;;;;;1.00;1.00;;;;;-147.17;100.00;49588.16;5073848;27;51440;-71
2021/11/02 10:27:54;;;;;;;;;4.00;3.00;;;;;-147.17;100.00;49590.13;5050758;28;51203;-72
2021/11/02 10:30:25;;;;;;;;;4.00;3.33;;;;;-147.17;100.00;49544.88;5045456;28;50994;-71
2021/11/02 10:32:56;;;;;;;;;2.67;2.67;;;;;-147.17;100.00;49552.72;5071152;27;51184;-71
2021/11/02 10:35:36;;;;;;;;;1.00;1.00;;;;;-147.17;100.00;49505.50;5064173;28;51089;-71
2021/11/02 10:38:24;;;;;;;;;1.00;1.00;;;;;-147.17;100.00;49442.53;5052328;28;52048;-72
2021/11/02 10:40:55;;;;;;;;;2.67;2.67;;;;;-147.17;100.00;49513.38;5037338;28;51372;-71
2021/11/02 10:43:42;;;;;;;;;2.00;2.00;;;;;-147.17;100.00;49517.31;5056585;27;51144;-70
2021/11/02 10:46:11;;;;;;;;;2.00;2.00;;;;;-147.17;100.00;49548.81;5071242;28;51079;-71
2021/11/02 10:48:47;;;;;;;;;3.00;2.67;;;;;-147.17;100.00;49517.31;5042581;28;54112;-70
2021/11/02 10:51:30;;;;;;;;;3.33;3.00;;;;;-147.17;100.00;49509.44;5066864;28;51087;-71
2021/11/02 10:54:12;;;;;;;;;2.33;2.33;;;;;-147.17;100.00;49574.38;5073887;27;53044;-72
2021/11/02 10:56:56;;;;;;;;;3.33;3.00;;;;;-147.17;100.00;49588.16;5074087;28;51087;-70
2021/11/02 10:59:23;;;;;;;;;3.00;2.67;;;;;-147.17;100.00;49527.16;5069128;27;51924;-71
2021/11/02 11:01:49;;;;;;;;;48.25;41.50;;;;;-147.17;100.00;49485.81;5048071;28;51335;-70
2021/11/02 11:04:15;;;;;;;;;3.00;2.00;;;;;-147.17;100.00;49544.88;5036547;28;51255;-70
2021/11/02 11:06:52;;;;;;;;;3.00;3.00;;;;;-147.17;100.00;49505.50;5073820;28;51208;-71
2021/11/02 11:09:19;;;;;;;;;1.00;1.00;;;;;-147.17;100.00;49499.59;5041966;28;53329;-70
2021/11/02 11:11:46;;;;;;;;;2.67;2.67;;;;;-147.17;100.00;49517.31;5031775;28;51129;-71
2021/11/02 11:14:15;;;;;;;;;3.00;3.00;;;;;-147.17;100.00;49531.09;5072897;27;51103;-72
2021/11/02 11:16:47;;;;;;;;;5.00;5.00;;;;;-147.17;100.00;49460.22;5067136;27;51175;-71
2021/11/02 11:19:27;;;;;;;;;3.00;3.00;;;;;-147.17;100.00;49507.47;5068806;28;52332;-71
2021/11/02 11:21:53;;;;;;;;;13.00;12.33;;;;;-147.17;100.00;49495.66;5073218;28;51150;-71
2021/11/02 11:24:32;;;;;;;;;1.00;1.00;;;;;-147.17;100.00;49489.75;5061197;28;51188;-71
2021/11/02 11:27:05;;;;;;;;;1.00;1.00;;;;;-147.17;100.00;49544.88;5072870;28;51041;-73
2021/11/02 11:29:47;;;;;;;;;2.00;2.00;;;;;-147.17;100.00;49527.16;5038715;28;53923;-70
2021/11/02 11:32:15;;;;;;;;;2.00;2.00;;;;;-147.17;100.00;49513.38;5071976;28;51140;-71
2021/11/02 11:34:45;;;;;;;;;3.00;3.00;;;;;-147.17;100.00;49554.69;5070308;28;51037;-70
2021/11/02 11:37:12;;;;;;;;;3.00;3.00;;;;;-147.17;100.00;49538.97;5075988;28;50852;-69
2021/11/02 11:39:38;;;;;;;;;3.00;3.00;;;;;-147.17;100.00;49481.88;5076543;28;51152;-70
2021/11/02 11:42:04;;;;;;;;;3.00;3.00;;;;;-147.17;100.00;49474.00;5052264;28;51131;-69
2021/11/02 11:44:31;;;;;;;;;5.00;4.67;;;;;-147.17;100.00;49515.34;5046932;28;51261;-71
2021/11/02 11:47:11;;;;;;;;;3.00;3.00;;;;;-147.17;100.00;49540.94;5037533;28;51374;-69
2021/11/02 11:49:39;;;;;;;;;3.67;3.00;;;;;-147.17;100.00;49560.59;5034086;28;53263;-70
2021/11/02 11:52:08;;;;;;;;;4.00;3.00;;;;;-147.17;100.00;49570.44;5055248;28;51127;-70
2021/11/02 11:54:44;;;;;;;;;2.00;2.00;;;;;-147.17;99.91;49596.03;5055222;28;51194;-71
2021/11/02 11:57:10;;;;;;;;;4.00;4.00;;;;;-147.17;99.19;49599.97;5071681;28;50973;-71
2021/11/02 11:59:35;;;;;;;;;3.00;3.00;;;;;-147.17;98.66;49635.41;5065517;28;50975;-71
2021/11/02 12:02:20;;;;;;;;;3.00;2.67;;;;;-147.17;98.39;49631.47;5073793;27;51211;-72
2021/11/02 12:04:47;;;;;;;;;4.00;4.00;;;;;-147.17;98.69;49607.84;5055702;27;51158;-71
2021/11/02 12:07:35;;;;;;;;;4.00;3.00;;;;;-147.17;98.93;49635.41;5070262;28;51081;-70
2021/11/02 12:10:06;;;;;;;;;3.33;3.00;;;;;-147.17;99.17;49603.91;5070578;28;51328;-70
2021/11/02 12:12:38;;;;;;;;;4.00;3.33;;;;;-147.17;99.28;49615.72;5039162;28;51229;-71
2021/11/02 12:15:12;;;;;;;;;3.67;3.67;;;;;-147.17;99.94;49598.00;5068983;28;51060;-71
2021/11/02 12:17:41;;;;;;;;;1.67;1.67;;;;;-147.17;100.00;49560.59;5061099;28;51273;-71
2021/11/02 12:20:11;;;;;;;;;4.00;4.00;;;;;-147.17;100.00;49576.34;5069471;28;52156;-71
2021/11/02 12:22:47;;;;;;;;;1.00;1.00;;;;;-147.17;100.00;49629.50;5073249;27;51154;-71
2021/11/02 12:25:18;;;;;;;;;3.00;3.00;;;;;-147.17;100.00;49582.25;5047637;28;51143;-70
2021/11/02 12:27:43;;;;;;;;;5.00;4.00;;;;;-147.17;100.00;49592.09;5070119;28;51058;-69
2021/11/02 12:30:11;;;;;;;;;3.00;3.00;;;;;-147.17;100.00;49574.38;5063010;28;51928;-71
2021/11/02 12:32:40;;;;;;;;;3.67;3.67;;;;;-147.17;100.00;49560.59;5042018;28;51106;-70
2021/11/02 12:35:18;;;;;;;;;3.00;3.00;;;;;-147.17;100.00;49521.25;5045456;28;50992;-70
2021/11/02 12:37:56;;;;;;;;;2.00;1.00;;;;;-147.17;100.00;49548.81;5053896;28;51103;-71
2021/11/02 12:40:27;;;;;;;;;4.00;3.67;;;;;-147.17;100.00;49505.50;5064306;27;52083;-70
2021/11/02 12:42:53;;;;;;;;;5.00;3.00;;;;;-147.17;100.00;49509.44;5048815;28;51172;-72
2021/11/02 12:45:22;;;;;;;;;3.00;2.00;;;;;-147.17;100.00;49554.69;5064272;28;51099;-71
2021/11/02 12:47:50;;;;;;;;;2.67;2.00;;;;;-147.17;100.00;49523.22;5047708;28;51035;-72
2021/11/02 12:50:17;;;;;;;;;4.00;3.33;;;;;-147.17;99.54;49584.22;5061731;28;52176;-71
2021/11/02 12:52:45;;;;;;;;;1.00;1.00;;;;;-147.17;99.40;49568.47;5066098;28;51200;-69
2021/11/02 12:55:14;;;;;;;;;4.33;4.33;;;;;-147.17;99.96;49511.41;5064991;28;51284;-69
2021/11/02 12:57:44;;;;;;;;;3.00;3.00;;;;;-147.17;98.14;49596.03;5065197;28;51058;-70
2021/11/02 13:00:13;;;;;;;;;2.00;2.00;;;;;-147.17;97.54;49623.59;5035415;27;54304;-71
2021/11/02 13:02:43;;;;;;;;;1.00;1.00;;;;;-147.17;97.93;49599.97;5071570;28;50827;-70
2021/11/02 13:05:22;;;;;;;;;2.67;2.00;;;;;-147.17;97.75;49615.72;5066937;28;51085;-71
2021/11/02 13:08:08;;;;;;;;;5.00;4.00;;;;;-147.17;97.58;49580.28;5071146;28;51323;-72
2021/11/02 13:10:35;;;;;;;;;3.33;3.33;;;;;-147.17;96.87;49603.91;5059025;28;52120;-68
2021/11/02 13:13:10;;;;;;;;;2.67;2.00;;;;;-147.17;97.27;49635.41;5072503;28;51265;-69
2021/11/02 13:15:49;;;;;;;;;2.00;2.00;;;;;-147.17;96.69;49607.84;5068513;27;53581;-71
2021/11/02 13:18:39;;;;;;;;;1.00;1.00;;;;;-147.17;96.74;49635.41;5065553;27;51353;-70
2021/11/02 13:21:06;;;;;;;;;1.00;1.00;;;;;-147.17;97.26;49637.38;5069291;28;52539;-71
2021/11/02 13:23:40;;;;;;;;;2.00;2.00;;;;;-147.17;97.01;49643.28;5062896;28;51499;-70
2021/11/02 13:26:16;;;;;;;;;4.00;3.00;;;;;-147.17;97.77;49617.69;5030127;28;51322;-70
2021/11/02 13:28:42;;;;;;;;;1.67;1.00;;;;;-147.17;96.87;49627.53;5047380;28;51229;-70
2021/11/02 13:31:33;;;;;;;;;6.00;6.00;;;;;-147.17;97.04;49625.56;5060433;28;51054;-70
2021/11/02 13:34:00;;;;;;;;;2.33;2.33;;;;;-147.17;97.49;49588.16;5059766;27;51397;-70
2021/11/02 13:36:26;;;;;;;;;4.00;4.00;;;;;-147.17;98.39;49645.25;5071909;28;50993;-69
2021/11/02 13:39:02;;;;;;;;;1.67;1.67;;;;;-147.17;97.50;49613.75;5049135;28;51255;-70
2021/11/02 13:41:31;;;;;;;;;1.00;1.00;;;;;-147.17;98.27;49576.34;5053952;27;52413;-70
2021/11/02 13:44:04;;;;;;;;;2.00;2.00;;;;;-147.17;97.45;49635.41;5063589;28;51011;-71
2021/11/02 13:46:34;;;;;;;;;2.00;2.00;;;;;-147.17;98.28;49631.47;5049553;28;51524;-69
2021/11/02 13:49:00;;;;;;;;;1.00;1.00;;;;;-147.17;97.21;49659.03;5038560;28;51353;-71
2021/11/02 13:51:26;;;;;;;;;1.00;1.00;;;;;-147.17;97.42;49647.22;5058140;28;51056;-71
2021/11/02 13:53:52;;;;;;;;;0.00;0.00;;;;;-147.17;97.10;49655.09;5074019;27;51134;-71
2021/11/02 13:56:23;;;;;;;;;2.00;1.00;;;;;-147.17;97.74;49668.84;5050000;28;51146;-71
2021/11/02 13:58:50;;;;;;;;;2.00;1.33;;;;;-147.17;97.60;49659.03;5059072;28;51130;-71
2021/11/02 14:02:11;;;;;;;;;1.00;1.00;;;;;-147.17;97.16;49666.88;5065514;27;51877;-70
2021/11/02 14:04:42;;;;;;;;;0.33;0.33;;;;;-147.17;97.46;49674.75;4991897;28;51144;-71
2021/11/02 14:07:23;;;;;;;;;2.00;2.00;;;;;-147.17;98.04;49694.44;5055105;27;51386;-70
2021/11/02 14:09:56;;;;;;;;;3.67;3.67;;;;;-147.17;97.81;49694.44;5072317;28;50985;-70
2021/11/02 14:12:26;;;;;;;;;3.00;0.33;;;;;-147.17;98.14;49678.69;5064790;28;52388;-69
2021/11/02 14:15:09;;;;;;;;;1.00;1.00;;;;;-147.17;98.04;49666.88;5079873;27;51146;-70
2021/11/02 14:17:35;;;;;;;;;1.00;1.00;;;;;-147.17;98.60;49684.59;5051216;28;50993;-70
2021/11/02 14:20:00;;;;;;;;;1.00;1.00;;;;;-147.17;99.27;49662.94;5060641;28;51170;-70
2021/11/02 14:22:52;;;;;;;;;3.00;2.00;;;;;-147.17;99.66;49666.88;5055624;28;51235;-70
2021/11/02 14:25:21;;;;;;;;;1.00;1.00;;;;;-147.17;100.00;49631.47;5067512;28;51098;-70
2021/11/02 14:27:50;;;;;;;;;2.00;2.00;;;;;-147.17;100.00;49635.41;5071297;27;51563;-69
2021/11/02 14:30:31;;;;;;;;;1.00;0.33;;;;;-147.17;100.00;49623.59;5075382;28;51646;-70
2021/11/02 14:32:59;;;;;;;;;1.00;1.00;;;;;-147.17;100.00;49584.22;5064416;28;51926;-70
2021/11/02 14:35:49;;;;;;;;;2.00;2.00;;;;;-147.17;100.00;49615.72;5064489;28;51174;-68
2021/11/02 14:38:19;;;;;;;;;2.00;2.00;;;;;-147.17;100.00;49603.91;5047537;28;51056;-70
2021/11/02 14:40:50;;;;;;;;;2.00;2.00;;;;;-147.17;100.00;49580.28;5074973;28;51020;-70
2021/11/02 14:43:17;;;;;;;;;1.00;1.00;;;;;-147.17;100.00;49580.28;5029575;27;51362;-70
2021/11/02 14:45:49;;;;;;;;;2.00;2.00;;;;;-147.17;100.00;49592.09;5065720;28;51167;-70
2021/11/02 14:48:44;;;;;;;;;2.67;2.67;;;;;-147.17;100.00;49592.09;5045867;28;51203;-71
2021/11/02 14:51:13;;;;;;;;;2.00;2.00;;;;;-147.17;100.00;49574.38;5067342;28;51252;-69
2021/11/02 14:53:42;;;;;;;;;2.00;2.00;;;;;-147.17;100.00;49560.59;5063470;27;53023;-70
2021/11/02 14:56:09;;;;;;;;;2.00;1.67;;;;;-147.17;100.00;49582.25;5071226;28;51013;-70
2021/11/02 14:58:41;;;;;;;;;1.33;1.33;;;;;-147.17;100.00;49592.09;5072594;28;51220;-70
2021/11/02 15:01:16;;;;;;;;;2.00;2.00;;;;;-147.17;100.00;49596.03;5067982;28;50923;-72
2021/11/02 15:04:06;;;;;;;;;2.33;2.33;;;;;-147.17;100.00;49594.06;5060197;27;51855;-70
2021/11/02 15:06:37;;;;;;;;;2.00;2.00;;;;;-147.17;100.00;49613.75;5044687;28;51219;-70
2021/11/02 15:09:09;;;;;;;;;1.00;1.00;;;;;-147.17;100.00;49607.84;5070612;28;50895;-69
2021/11/02 15:11:35;;;;;;;;;2.00;2.00;;;;;-147.17;100.00;49560.59;5054369;28;51423;-70
2021/11/02 15:14:04;;;;;;;;;2.00;2.00;;;;;-147.17;100.00;49619.66;5050654;27;51982;-70
2021/11/02 15:16:30;;;;;;;;;3.00;2.00;;;;;-147.17;100.00;49657.06;5064462;28;51114;-69
2021/11/02 15:19:02;;;;;;;;;3.00;2.00;;;;;-147.17;100.00;49684.59;5059681;28;50972;-71
2021/11/02 15:21:35;;;;;;;;;2.00;2.00;;;;;-147.17;100.00;49694.44;5069031;28;50938;-70
2021/11/02 15:24:10;;;;;;;;;3.00;1.00;;;;;-147.17;100.00;49651.16;5072894;28;52595;-70
2021/11/02 15:26:45;;;;;;;;;1.00;1.00;;;;;-147.17;100.00;49657.06;5053772;28;51233;-70
2021/11/02 15:29:11;;;;;;;;;0.00;0.00;;;;;-147.17;100.00;49678.69;5068506;28;51181;-68
2021/11/02 15:31:37;;;;;;;;;2.00;2.00;;;;;-147.17;100.00;49635.41;5059957;28;51296;-69
2021/11/02 15:34:14;;;;;;;;;1.67;1.00;;;;;-147.17;100.00;49619.66;5050209;28;52912;-71
2021/11/02 15:36:39;;;;;;;;;3.00;3.00;;;;;-147.17;100.00;49664.91;5057999;28;51554;-70
2021/11/02 15:39:09;;;;;;;;;2.00;1.00;;;;;-147.17;100.00;49670.81;5040447;28;51014;-71
2021/11/02 15:41:35;;;;;;;;;1.67;1.67;;;;;-147.17;100.00;49670.81;5071781;28;51222;-69
2021/11/02 15:44:07;;;;;;;;;2.33;2.33;;;;;-147.17;100.00;49680.66;5034806;28;53164;-70
2021/11/02 15:46:35;;;;;;;;;5.67;5.67;;;;;-147.17;100.00;49670.81;5048839;28;51385;-69
2021/11/02 15:49:04;;;;;;;;;3.67;3.67;;;;;-147.17;100.00;49678.69;5075097;27;51267;-71
2021/11/02 15:51:33;;;;;;;;;4.00;3.67;;;;;-147.17;100.00;49682.63;5035079;28;51296;-69
2021/11/02 15:53:59;;;;;;;;;1.00;1.00;;;;;-147.17;100.00;49662.94;5068771;28;51725;-68
2021/11/02 15:56:27;;;;;;;;;3.00;2.00;;;;;-147.17;100.00;49688.53;5056934;28;51094;-71
2021/11/02 15:59:02;;;;;;;;;2.00;2.00;;;;;-147.17;100.00;49680.66;5055396;28;51060;-70
2021/11/02 16:01:33;;;;;;;;;3.33;3.33;;;;;-147.17;100.00;49682.63;5071718;28;51219;-69
2021/11/02 16:04:27;;;;;;;;;4.00;4.00;;;;;-147.17;100.00;49639.34;5056377;28;52704;-70
2021/11/02 16:07:08;;;;;;;;;3.00;2.33;;;;;-147.17;100.00;49643.28;5031239;28;51102;-70
2021/11/02 16:09:42;;;;;;;;;3.00;2.33;;;;;-147.17;100.00;49641.31;5050862;28;51224;-70
2021/11/02 16:12:21;;;;;;;;;2.00;2.00;;;;;-147.17;100.00;49653.13;5066706;28;51462;-70
2021/11/02 16:14:57;;;;;;;;;1.00;1.00;;;;;-147.17;100.00;49659.03;5043263;28;53810;-70
2021/11/02 16:17:24;;;;;;;;;3.33;2.33;;;;;-147.17;100.00;49690.50;5069623;28;51309;-70
2021/11/02 16:19:52;;;;;;;;;3.00;3.00;;;;;-147.17;100.00;49627.53;5057497;27;51126;-68
2021/11/02 16:22:19;;;;;;;;;3.00;3.00;;;;;-147.17;100.00;49666.88;5064554;28;51101;-68
2021/11/02 16:24:45;;;;;;;;;3.67;3.67;;;;;-147.17;100.00;49651.16;5052676;28;54239;-71
2021/11/02 16:27:22;;;;;;;;;4.00;4.00;;;;;-147.17;100.00;49662.94;5067652;28;51218;-69
2021/11/02 16:29:51;;;;;;;;;2.33;2.00;;;;;-147.17;100.00;49678.69;5049275;28;51229;-68
2021/11/02 16:32:27;;;;;;;;;3.00;3.00;;;;;-147.17;100.00;49682.63;5040365;28;51118;-68
2021/11/02 16:34:53;;;;;;;;;3.00;3.00;;;;;-147.17;100.00;49659.03;5062175;27;51161;-69
2021/11/02 16:37:35;;;;;;;;;3.00;2.00;;;;;-147.17;100.00;49662.94;5037707;28;51225;-70
2021/11/02 16:40:25;;;;;;;;;3.00;3.00;;;;;-147.17;100.00;49680.66;5048562;28;51159;-70
2021/11/02 16:42:55;;;;;;;;;1.67;1.67;;;;;-147.17;100.00;49666.88;5034241;28;51098;-71